createdAt,value
2023-02-18T00:00:30.844Z,50.42
2023-02-18T00:02:57.622Z,45.08
2023-02-18T00:05:25.796Z,52.78
2023-02-18T00:07:52.532Z,50.42
2023-02-18T00:10:19.742Z,48.50
2023-02-18T00:12:46.973Z,36.15
2023-02-18T00:15:14.289Z,45.78
2023-02-18T00:17:41.065Z,47.63
2023-02-18T00:20:08.520Z,39.25
2023-02-18T00:22:36.866Z,52.55
2023-02-18T00:25:03.694Z,49.70
2023-02-18T00:27:30.434Z,44.13
2023-02-18T00:29:58.429Z,50.20
2023-02-18T00:32:25.315Z,50.05
2023-02-18T00:34:52.078Z,40.13
2023-02-18T00:37:18.874Z,49.97
2023-02-18T00:39:46.949Z,44.83
2023-02-18T00:42:13.694Z,22.77
2023-02-18T00:44:40.647Z,49.42
2023-02-18T00:47:07.367Z,44.75
2023-02-18T00:49:34.098Z,51.33
2023-02-18T00:52:00.893Z,49.42
2023-02-18T00:54:27.677Z,53.33
2023-02-18T00:56:55.832Z,54.97
2023-02-18T00:59:22.654Z,40.42
2023-02-18T01:01:49.521Z,48.00
2023-02-18T01:04:16.288Z,55.45
2023-02-18T01:06:43.051Z,50.65
2023-02-18T01:09:10.386Z,46.30
2023-02-18T01:11:37.395Z,57.97
2023-02-18T01:14:05.578Z,49.88
2023-02-18T01:16:32.350Z,49.30
2023-02-18T01:18:59.355Z,55.08
2023-02-18T01:21:26.400Z,60.65
2023-02-18T01:23:53.192Z,66.13
2023-02-18T01:26:20.062Z,60.47
2023-02-18T01:28:46.829Z,55.50
2023-02-18T01:31:16.781Z,61.45
2023-02-18T01:33:44.043Z,61.92
2023-02-18T01:36:13.796Z,62.67
2023-02-18T01:38:40.989Z,60.42
2023-02-18T01:41:07.809Z,67.95
2023-02-18T01:43:34.991Z,62.72
2023-02-18T01:46:12.090Z,71.38
2023-02-18T01:48:42.985Z,57.70
2023-02-18T01:51:14.052Z,69.85
2023-02-18T01:53:48.524Z,70.32
2023-02-18T01:56:23.273Z,65.28
2023-02-18T01:58:51.578Z,68.97
2023-02-18T02:01:18.508Z,38.67
2023-02-18T02:03:46.611Z,73.22
2023-02-18T02:06:17.456Z,73.50
2023-02-18T02:08:47.743Z,53.88
2023-02-18T02:11:24.559Z,73.38
2023-02-18T02:14:16.127Z,68.07
2023-02-18T02:16:53.221Z,61.25
2023-02-18T02:20:02.345Z,63.72
2023-02-18T02:23:00.883Z,36.60
2023-02-18T02:25:47.020Z,73.57
2023-02-18T02:28:41.714Z,70.28
2023-02-18T02:31:48.712Z,72.18
2023-02-18T02:34:45.711Z,73.95
2023-02-18T02:37:18.509Z,62.70
2023-02-18T02:39:57.556Z,59.97
2023-02-18T02:42:35.330Z,56.70
2023-02-18T02:45:09.738Z,69.32
2023-02-18T02:47:43.975Z,73.03
2023-02-18T02:50:17.303Z,54.83
2023-02-18T02:52:47.500Z,64.85
2023-02-18T02:55:14.457Z,62.40
2023-02-18T02:57:47.660Z,64.18
2023-02-18T03:00:18.330Z,61.78
2023-02-18T03:03:02.397Z,59.30
2023-02-18T03:05:44.999Z,55.60
2023-02-18T03:08:30.117Z,55.95
2023-02-18T03:11:03.309Z,34.58
2023-02-18T03:13:46.161Z,50.67
2023-02-18T03:16:21.849Z,52.88
2023-02-18T03:18:54.130Z,55.78
2023-02-18T03:21:26.101Z,45.05
2023-02-18T03:23:56.289Z,52.03
2023-02-18T03:26:25.404Z,45.10
2023-02-18T03:28:54.707Z,36.75
2023-02-18T03:31:26.180Z,31.42
2023-02-18T03:33:59.395Z,26.90
2023-02-18T03:36:28.566Z,30.15
2023-02-18T03:38:59.371Z,28.27
2023-02-18T03:41:26.147Z,33.15
2023-02-18T03:43:53.209Z,26.13
2023-02-18T03:46:20.300Z,38.17
2023-02-18T03:48:48.290Z,42.47
2023-02-18T03:51:15.042Z,39.13
2023-02-18T03:53:45.182Z,49.38
2023-02-18T03:56:12.062Z,48.60
2023-02-18T03:58:38.950Z,43.20
2023-02-18T04:01:06.026Z,43.33
2023-02-18T04:03:33.033Z,37.65
2023-02-18T04:06:00.847Z,26.15
2023-02-18T04:08:27.592Z,37.78
2023-02-18T04:10:55.673Z,33.67
2023-02-18T04:13:22.905Z,38.13
2023-02-18T04:15:50.520Z,32.08
2023-02-18T04:18:17.948Z,30.17
2023-02-18T04:20:45.301Z,26.75
2023-02-18T04:23:12.206Z,30.13
2023-02-18T04:25:39.294Z,26.88
2023-02-18T04:28:07.446Z,20.02
2023-02-18T04:30:34.337Z,21.63
2023-02-18T04:33:01.131Z,19.65
2023-02-18T04:35:27.907Z,20.45
2023-02-18T04:37:55.108Z,16.38
2023-02-18T04:40:21.826Z,20.55
2023-02-18T04:42:48.933Z,23.52
2023-02-18T04:45:17.239Z,14.77
2023-02-18T04:47:44.023Z,22.02
2023-02-18T04:50:11.351Z,16.27
2023-02-18T04:52:38.194Z,20.98
2023-02-18T04:55:05.517Z,19.77
2023-02-18T04:57:32.286Z,18.85
2023-02-18T04:59:59.037Z,12.07
2023-02-18T05:02:27.204Z,16.83
2023-02-18T05:04:53.954Z,14.25
2023-02-18T05:07:20.721Z,18.00
2023-02-18T05:09:47.544Z,18.77
2023-02-18T05:12:14.256Z,14.02
2023-02-18T05:14:41.034Z,10.05
2023-02-18T05:17:08.282Z,12.13
2023-02-18T05:19:36.386Z,10.20
2023-02-18T05:22:03.147Z,11.43
2023-02-18T05:24:29.892Z,7.15
2023-02-18T05:26:57.060Z,7.47
2023-02-18T05:29:23.816Z,6.00
2023-02-18T05:31:51.712Z,7.80
2023-02-18T05:34:18.750Z,9.18
2023-02-18T05:36:46.963Z,7.43
2023-02-18T05:39:13.695Z,6.70
2023-02-18T05:41:40.392Z,6.07
2023-02-18T05:44:07.135Z,7.40
2023-02-18T05:46:34.035Z,5.28
2023-02-18T05:49:00.810Z,5.57
2023-02-18T05:51:27.645Z,5.07
2023-02-18T05:53:55.732Z,8.05
2023-02-18T05:56:22.509Z,6.70
2023-02-18T05:58:49.556Z,5.30
2023-02-18T06:01:16.815Z,6.28
2023-02-18T06:03:43.651Z,7.43
2023-02-18T06:06:10.956Z,5.03
2023-02-18T06:08:37.919Z,4.78
2023-02-18T06:11:06.094Z,4.85
2023-02-18T06:13:32.834Z,5.82
2023-02-18T06:15:59.650Z,4.95
2023-02-18T06:18:26.524Z,6.43
2023-02-18T06:20:53.265Z,5.20
2023-02-18T06:23:20.099Z,5.18
2023-02-18T06:25:48.796Z,5.22
2023-02-18T06:28:18.428Z,8.27
2023-02-18T06:30:45.429Z,6.28
2023-02-18T06:33:12.348Z,7.75
2023-02-18T06:35:39.609Z,9.63
2023-02-18T06:38:06.936Z,9.68
2023-02-18T06:40:33.932Z,10.38
2023-02-18T06:43:00.680Z,11.73
2023-02-18T06:45:28.808Z,8.77
2023-02-18T06:47:55.565Z,10.07
2023-02-18T06:50:22.361Z,10.27
2023-02-18T06:52:49.180Z,12.23
2023-02-18T06:55:15.959Z,6.95
2023-02-18T06:57:42.716Z,12.25
2023-02-18T07:00:10.124Z,10.55
2023-02-18T07:02:38.207Z,12.75
2023-02-18T07:05:05.485Z,10.83
2023-02-18T07:07:32.205Z,8.35
2023-02-18T07:09:58.963Z,10.35
2023-02-18T07:12:26.668Z,15.13
2023-02-18T07:14:53.432Z,12.70
2023-02-18T07:17:20.253Z,11.63
2023-02-18T07:19:48.466Z,10.70
2023-02-18T07:22:16.508Z,11.30
2023-02-18T07:24:43.485Z,12.13
2023-02-18T07:27:10.557Z,8.23
2023-02-18T07:29:37.352Z,8.00
2023-02-18T07:32:04.546Z,10.07
2023-02-18T07:34:31.304Z,11.00
2023-02-18T07:36:59.421Z,12.90
2023-02-18T07:39:26.200Z,16.10
2023-02-18T07:41:53.029Z,15.30
2023-02-18T07:44:19.757Z,16.35
2023-02-18T07:46:48.372Z,14.15
2023-02-18T07:49:15.459Z,12.77
2023-02-18T07:51:42.230Z,15.10
2023-02-18T07:54:10.330Z,18.92
2023-02-18T07:56:37.129Z,8.93
2023-02-18T07:59:03.966Z,13.32
2023-02-18T08:01:30.702Z,12.18
2023-02-18T08:03:58.616Z,12.32
2023-02-18T08:06:28.157Z,16.10
2023-02-18T08:08:54.896Z,11.60
2023-02-18T08:11:23.011Z,15.88
2023-02-18T08:13:49.828Z,16.40
2023-02-18T08:16:17.582Z,15.20
2023-02-18T08:18:44.551Z,20.58
2023-02-18T08:21:11.311Z,18.52
2023-02-18T08:23:38.067Z,18.52
2023-02-18T08:26:05.283Z,14.93
2023-02-18T08:28:33.504Z,10.70
2023-02-18T08:31:00.848Z,17.67
2023-02-18T08:33:28.908Z,17.00
2023-02-18T08:35:57.506Z,17.77
2023-02-18T08:38:25.239Z,12.98
2023-02-18T08:41:01.191Z,14.98
2023-02-18T08:43:27.966Z,15.43
2023-02-18T08:45:57.823Z,15.43
2023-02-18T08:48:25.082Z,16.75
2023-02-18T08:50:51.965Z,21.63
2023-02-18T08:53:19.195Z,19.70
2023-02-18T08:55:46.180Z,13.98
2023-02-18T08:58:13.242Z,12.25
2023-02-18T09:00:41.802Z,14.32
2023-02-18T09:03:12.381Z,14.07
2023-02-18T09:05:39.523Z,13.52
2023-02-18T09:08:06.275Z,20.05
2023-02-18T09:10:33.069Z,18.20
2023-02-18T09:12:59.807Z,23.90
2023-02-18T09:15:26.546Z,18.85
2023-02-18T09:17:53.646Z,17.60
2023-02-18T09:20:21.825Z,12.02
2023-02-18T09:22:48.561Z,12.05
2023-02-18T09:25:15.398Z,14.02
2023-02-18T09:27:42.339Z,9.77
2023-02-18T09:30:09.610Z,9.55
2023-02-18T09:32:36.389Z,21.73
2023-02-18T09:35:04.286Z,10.93
2023-02-18T09:37:32.748Z,9.75
2023-02-18T09:39:59.494Z,11.55
2023-02-18T09:42:31.432Z,10.75
2023-02-18T09:45:00.822Z,12.45
2023-02-18T09:47:32.746Z,11.52
2023-02-18T09:50:04.035Z,10.02
2023-02-18T09:52:34.408Z,9.13
2023-02-18T09:55:01.755Z,12.30
2023-02-18T09:57:35.179Z,14.45
2023-02-18T10:00:06.634Z,9.93
2023-02-18T10:02:35.385Z,9.82
2023-02-18T10:05:03.105Z,14.35
2023-02-18T10:07:34.534Z,7.30
2023-02-18T10:10:08.398Z,8.77
2023-02-18T10:12:36.554Z,10.27
2023-02-18T10:15:03.672Z,9.80
2023-02-18T10:17:32.668Z,9.07
2023-02-18T10:22:30.666Z,5.93
2023-02-18T10:25:02.152Z,10.15
2023-02-18T10:27:31.260Z,7.05
2023-02-18T10:30:07.471Z,13.07
2023-02-18T10:32:40.286Z,7.97
2023-02-18T10:35:17.438Z,7.25
2023-02-18T10:37:57.054Z,9.02
2023-02-18T10:40:35.403Z,10.20
2023-02-18T10:43:12.630Z,8.52
2023-02-18T10:45:46.255Z,5.65
2023-02-18T10:48:29.678Z,13.23
2023-02-18T10:50:58.616Z,11.07
2023-02-18T10:56:00.168Z,13.80
2023-02-18T10:58:31.704Z,7.60
2023-02-18T11:01:00.004Z,8.45
2023-02-18T11:03:38.200Z,7.15
2023-02-18T11:06:14.995Z,10.85
2023-02-18T11:08:44.132Z,10.77
2023-02-18T11:11:18.081Z,7.43
2023-02-18T11:13:44.945Z,7.88
2023-02-18T11:16:12.703Z,8.43
2023-02-18T11:18:40.991Z,13.82
2023-02-18T11:21:23.900Z,8.80
2023-02-18T11:23:53.107Z,9.50
2023-02-18T11:26:28.203Z,14.13
2023-02-18T11:29:00.097Z,11.38
2023-02-18T11:31:39.941Z,9.40
2023-02-18T11:34:13.476Z,9.95
2023-02-18T11:36:40.229Z,9.38
2023-02-18T11:39:18.330Z,16.77
2023-02-18T11:41:53.353Z,9.10
2023-02-18T11:44:23.898Z,11.27
2023-02-18T11:47:02.414Z,12.60
2023-02-18T11:49:30.698Z,9.57
2023-02-18T11:52:19.107Z,9.55
2023-02-18T11:55:00.889Z,15.43
2023-02-18T11:57:29.322Z,7.65
2023-02-18T11:59:57.166Z,9.25
2023-02-18T12:02:32.610Z,11.50
2023-02-18T12:05:03.942Z,8.65
2023-02-18T12:07:39.357Z,10.07
2023-02-18T12:10:14.311Z,8.75
2023-02-18T12:12:51.538Z,13.63
2023-02-18T12:15:24.558Z,7.15
2023-02-18T12:18:09.253Z,9.23
2023-02-18T12:20:55.042Z,11.52
2023-02-18T12:23:29.493Z,12.27
2023-02-18T12:26:05.673Z,9.25
2023-02-18T12:28:45.931Z,11.63
2023-02-18T12:31:34.652Z,9.57
2023-02-18T12:36:58.620Z,16.00
2023-02-18T12:39:36.052Z,3.85
2023-02-18T12:42:25.423Z,7.88
2023-02-18T12:45:07.613Z,6.72
2023-02-18T12:48:05.507Z,12.00
2023-02-18T12:50:47.311Z,11.00
2023-02-18T12:53:41.898Z,10.73
2023-02-18T12:56:26.022Z,12.80
2023-02-18T12:59:00.566Z,12.18
2023-02-18T13:01:38.720Z,7.95
2023-02-18T13:04:39.880Z,9.77
2023-02-18T13:07:28.043Z,12.85
2023-02-18T13:10:28.628Z,14.23
2023-02-18T13:13:03.281Z,7.97
2023-02-18T13:15:37.808Z,9.57
2023-02-18T13:18:10.897Z,17.77
2023-02-18T13:20:42.429Z,13.00
2023-02-18T13:23:17.329Z,14.52
2023-02-18T13:25:45.385Z,8.88
2023-02-18T13:28:23.468Z,10.30
2023-02-18T13:30:59.080Z,10.68
2023-02-18T13:33:37.649Z,12.35
2023-02-18T13:36:11.646Z,13.88
2023-02-18T13:38:58.371Z,10.75
2023-02-18T13:41:26.973Z,10.63
2023-02-18T13:43:53.906Z,10.63
2023-02-18T13:46:22.219Z,9.45
2023-02-18T13:48:52.984Z,11.20
2023-02-18T13:51:30.390Z,10.32
2023-02-18T13:54:04.811Z,13.23
2023-02-18T13:56:33.911Z,8.77
2023-02-18T13:59:08.304Z,8.18
2023-02-18T14:01:41.497Z,14.77
2023-02-18T14:04:51.672Z,9.52
2023-02-18T14:07:38.366Z,15.98
2023-02-18T14:10:30.793Z,13.57
2023-02-18T14:13:24.322Z,9.77
2023-02-18T14:15:55.950Z,8.38
2023-02-18T14:18:31.202Z,15.30
2023-02-18T14:21:20.035Z,9.52
2023-02-18T14:26:29.464Z,7.55
2023-02-18T14:29:01.255Z,15.38
2023-02-18T14:31:34.419Z,14.18
2023-02-18T14:34:19.907Z,11.50
2023-02-18T14:36:55.869Z,10.15
2023-02-18T14:39:37.175Z,10.52
2023-02-18T14:42:11.984Z,11.82
2023-02-18T14:44:59.538Z,14.25
2023-02-18T14:47:35.762Z,10.10
2023-02-18T14:50:04.918Z,12.68
2023-02-18T14:52:38.094Z,8.43
2023-02-18T14:55:15.107Z,7.90
2023-02-18T14:57:46.265Z,7.22
2023-02-18T15:00:17.192Z,9.82
2023-02-18T15:02:44.050Z,11.13
2023-02-18T15:05:16.470Z,8.23
2023-02-18T15:07:55.379Z,9.57
2023-02-18T15:12:48.883Z,9.68
2023-02-18T15:15:17.247Z,12.68
2023-02-18T15:17:48.039Z,9.05
2023-02-18T15:20:16.115Z,9.27
2023-02-18T15:22:44.485Z,8.30
2023-02-18T15:25:13.193Z,10.57
2023-02-18T15:27:42.423Z,12.13
2023-02-18T15:30:18.445Z,13.20
2023-02-18T15:32:50.467Z,13.65
2023-02-18T15:35:19.866Z,9.65
2023-02-18T15:37:54.683Z,10.00
2023-02-18T15:40:24.547Z,7.97
2023-02-18T15:42:54.112Z,11.05
2023-02-18T15:45:23.252Z,10.75
2023-02-18T15:47:52.466Z,11.23
2023-02-18T15:50:21.428Z,6.95
2023-02-18T15:55:24.125Z,9.32
2023-02-18T15:57:52.253Z,13.88
2023-02-18T16:00:25.581Z,8.68
2023-02-18T16:02:56.611Z,13.40
2023-02-18T16:05:28.353Z,14.95
2023-02-18T16:08:01.036Z,10.35
2023-02-18T16:10:44.340Z,16.23
2023-02-18T16:13:15.523Z,12.93
2023-02-18T16:15:44.808Z,10.88
2023-02-18T16:18:28.790Z,17.15
2023-02-18T16:20:58.687Z,8.82
2023-02-18T16:23:40.268Z,18.38
2023-02-18T16:26:18.803Z,8.90
2023-02-18T16:28:46.249Z,13.07
2023-02-18T16:31:12.993Z,7.15
2023-02-18T16:33:39.924Z,12.73
2023-02-18T16:36:10.388Z,12.20
2023-02-18T16:38:38.591Z,11.60
2023-02-18T16:41:06.028Z,16.20
2023-02-18T16:43:32.783Z,14.20
2023-02-18T16:46:08.339Z,18.02
2023-02-18T16:48:37.246Z,5.82
2023-02-18T16:51:09.436Z,12.38
2023-02-18T16:53:37.672Z,14.38
2023-02-18T16:56:05.212Z,14.82
2023-02-18T16:58:32.028Z,15.55
2023-02-18T17:00:58.899Z,15.68
2023-02-18T17:03:25.663Z,9.68
2023-02-18T17:05:52.446Z,11.15
2023-02-18T17:08:21.578Z,13.13
2023-02-18T17:10:51.036Z,10.75
2023-02-18T17:13:19.591Z,16.23
2023-02-18T17:15:48.434Z,13.90
2023-02-18T17:18:17.267Z,9.23
2023-02-18T17:20:44.218Z,15.82
2023-02-18T17:23:14.284Z,14.02
2023-02-18T17:25:41.828Z,16.45
2023-02-18T17:28:10.256Z,11.90
2023-02-18T17:30:39.286Z,20.95
2023-02-18T17:35:33.449Z,13.65
2023-02-18T17:38:00.268Z,15.18
2023-02-18T17:40:28.681Z,19.20
2023-02-18T17:42:56.223Z,17.30
2023-02-18T17:45:28.265Z,19.80
2023-02-18T17:47:55.889Z,15.20
2023-02-18T17:50:22.820Z,15.23
2023-02-18T17:52:49.708Z,16.40
2023-02-18T17:55:22.947Z,10.98
2023-02-18T17:57:50.958Z,18.27
2023-02-18T18:00:20.600Z,14.80
2023-02-18T18:02:51.123Z,13.50
2023-02-18T18:05:21.250Z,14.07
2023-02-18T18:07:48.936Z,11.48
2023-02-18T18:10:16.874Z,19.13
2023-02-18T18:12:43.794Z,15.65
2023-02-18T18:15:24.179Z,20.55
2023-02-18T18:17:52.995Z,24.65
2023-02-18T18:20:20.720Z,22.70
2023-02-18T18:22:47.664Z,18.67
2023-02-18T18:25:18.915Z,15.68
2023-02-18T18:27:45.964Z,14.02
2023-02-18T18:30:13.824Z,18.92
2023-02-18T18:32:40.635Z,14.02
2023-02-18T18:35:18.903Z,14.35
2023-02-18T18:37:48.004Z,13.25
2023-02-18T18:40:15.143Z,15.27
2023-02-18T18:42:41.913Z,15.20
2023-02-18T18:45:16.772Z,16.80
2023-02-18T18:47:43.654Z,15.38
2023-02-18T18:50:10.462Z,13.07
2023-02-18T18:52:38.570Z,17.83
2023-02-18T18:55:19.657Z,19.67
2023-02-18T18:57:47.330Z,23.88
2023-02-18T19:00:16.091Z,21.08
2023-02-18T19:02:42.890Z,13.57
2023-02-18T19:05:18.323Z,19.15
2023-02-18T19:07:48.018Z,15.60
2023-02-18T19:10:15.350Z,20.05
2023-02-18T19:12:42.124Z,20.65
2023-02-18T19:15:12.655Z,22.13
2023-02-18T19:17:39.454Z,19.77
2023-02-18T19:20:06.888Z,16.98
2023-02-18T19:22:33.668Z,20.27
2023-02-18T19:25:01.805Z,17.92
2023-02-18T19:27:29.593Z,24.88
2023-02-18T19:29:56.517Z,20.90
2023-02-18T19:32:23.646Z,23.23
2023-02-18T19:34:50.367Z,24.50
2023-02-18T19:37:17.165Z,24.35
2023-02-18T19:39:43.874Z,19.08
2023-02-18T19:42:11.970Z,30.67
2023-02-18T19:44:38.895Z,27.63
2023-02-18T19:47:06.072Z,27.17
2023-02-18T19:49:32.859Z,24.40
2023-02-18T19:51:59.855Z,27.30
2023-02-18T19:54:28.131Z,24.83
2023-02-18T19:56:54.870Z,31.70
2023-02-18T19:59:23.433Z,32.40
2023-02-18T20:01:50.427Z,30.02
2023-02-18T20:04:17.200Z,38.63
2023-02-18T20:06:43.946Z,32.17
2023-02-18T20:09:11.439Z,34.83
2023-02-18T20:11:38.188Z,36.05
2023-02-18T20:14:05.018Z,37.30
2023-02-18T20:16:33.124Z,35.72
2023-02-18T20:18:59.944Z,35.00
2023-02-18T20:21:26.759Z,44.55
2023-02-18T20:23:53.955Z,37.35
2023-02-18T20:26:20.774Z,34.80
2023-02-18T20:28:47.863Z,38.33
2023-02-18T20:31:15.621Z,45.80
2023-02-18T20:33:44.206Z,41.95
2023-02-18T20:36:14.375Z,37.78
2023-02-18T20:38:41.308Z,38.45
2023-02-18T20:41:09.924Z,37.25
2023-02-18T20:43:36.901Z,43.13
2023-02-18T20:46:04.489Z,44.13
2023-02-18T20:48:31.545Z,44.78
2023-02-18T20:51:05.335Z,40.92
2023-02-18T20:53:35.151Z,46.22
2023-02-18T20:56:02.326Z,45.60
2023-02-18T20:58:29.712Z,39.38
2023-02-18T21:00:58.082Z,39.58
2023-02-18T21:03:24.882Z,46.90
2023-02-18T21:05:55.691Z,34.80
2023-02-18T21:08:25.265Z,47.50
2023-02-18T21:10:53.003Z,44.30
2023-02-18T21:13:19.944Z,49.95
2023-02-18T21:15:47.131Z,46.42
2023-02-18T21:18:14.772Z,52.80
2023-02-18T21:20:44.675Z,46.75
2023-02-18T21:23:11.584Z,40.88
2023-02-18T21:25:40.150Z,42.08
2023-02-18T21:28:07.624Z,36.03
2023-02-18T21:30:34.455Z,41.58
2023-02-18T21:33:01.254Z,33.50
2023-02-18T21:35:29.216Z,31.02
2023-02-18T21:37:55.961Z,38.80
2023-02-18T21:40:22.790Z,31.05
2023-02-18T21:42:52.202Z,34.15
2023-02-18T21:45:22.893Z,30.95
2023-02-18T21:47:49.767Z,30.20
2023-02-18T21:50:17.133Z,33.55
2023-02-18T21:52:43.952Z,36.63
2023-02-18T21:55:11.005Z,33.45
2023-02-18T21:57:38.089Z,44.67
2023-02-18T22:00:19.571Z,45.58
2023-02-18T22:02:47.001Z,37.70
2023-02-18T22:05:13.789Z,42.20
2023-02-18T22:07:40.564Z,49.22
2023-02-18T22:10:07.628Z,45.65
2023-02-18T22:12:34.596Z,59.05
2023-02-18T22:15:02.343Z,41.65
2023-02-18T22:17:30.701Z,49.78
2023-02-18T22:19:57.460Z,43.70
2023-02-18T22:22:25.210Z,47.55
2023-02-18T22:24:54.341Z,40.90
2023-02-18T22:27:21.158Z,41.78
2023-02-18T22:29:49.931Z,31.63
2023-02-18T22:32:16.815Z,42.88
2023-02-18T22:34:44.978Z,37.88
2023-02-18T22:37:11.822Z,43.92
2023-02-18T22:39:38.891Z,36.85
2023-02-18T22:42:05.717Z,36.75
2023-02-18T22:44:32.499Z,33.13
2023-02-18T22:46:59.255Z,30.50
2023-02-18T22:49:26.003Z,26.92
2023-02-18T22:51:54.661Z,21.83
2023-02-18T22:54:21.528Z,23.80
2023-02-18T22:56:48.861Z,23.40
2023-02-18T22:59:17.599Z,25.63
2023-02-18T23:01:46.654Z,19.33
2023-02-18T23:06:43.235Z,23.77
2023-02-18T23:11:40.365Z,23.63
2023-02-18T23:14:07.148Z,23.48
2023-02-18T23:16:34.388Z,19.15
2023-02-18T23:19:01.243Z,27.40
2023-02-18T23:21:28.000Z,21.58
2023-02-18T23:23:55.925Z,29.50
2023-02-18T23:26:25.622Z,25.70
2023-02-18T23:28:55.121Z,26.45
2023-02-18T23:31:24.387Z,35.85
2023-02-18T23:33:54.415Z,23.40
2023-02-18T23:36:24.283Z,30.48
2023-02-18T23:38:52.902Z,29.83
2023-02-18T23:41:21.013Z,32.00
2023-02-18T23:43:49.742Z,33.97
2023-02-18T23:46:18.961Z,31.50
2023-02-18T23:48:45.813Z,21.15
2023-02-18T23:51:14.599Z,28.98
2023-02-18T23:53:41.750Z,23.48
2023-02-18T23:56:13.801Z,29.35
2023-02-18T23:58:42.088Z,26.58
